sensor_id;sensor_type;location;lat;lon;timestamp;P1;durP1;ratioP1;P2;durP2;ratioP2
60979;SDS011;46851;49.160;8.980;2023-12-14T00:00:53;8.88;;;5.97;;
60979;SDS011;46851;49.160;8.980;2023-12-14T00:03:19;9.93;;;6.03;;
60979;SDS011;46851;49.160;8.980;2023-12-14T00:05:45;11.00;;;6.28;;
60979;SDS011;46851;49.160;8.980;2023-12-14T00:08:11;10.57;;;6.47;;
60979;SDS011;46851;49.160;8.980;2023-12-14T00:10:37;12.82;;;6.38;;
60979;SDS011;46851;49.160;8.980;2023-12-14T00:13:03;9.60;;;5.50;;
60979;SDS011;46851;49.160;8.980;2023-12-14T00:15:32;16.48;;;6.95;;
60979;SDS011;46851;49.160;8.980;2023-12-14T00:17:58;11.18;;;6.63;;
60979;SDS011;46851;49.160;8.980;2023-12-14T00:20:24;11.63;;;6.15;;
60979;SDS011;46851;49.160;8.980;2023-12-14T00:22:50;10.45;;;6.20;;
60979;SDS011;46851;49.160;8.980;2023-12-14T00:25:16;9.05;;;6.18;;
60979;SDS011;46851;49.160;8.980;2023-12-14T00:27:42;8.88;;;5.93;;
60979;SDS011;46851;49.160;8.980;2023-12-14T00:30:13;11.48;;;6.30;;
60979;SDS011;46851;49.160;8.980;2023-12-14T00:32:39;9.68;;;6.38;;
60979;SDS011;46851;49.160;8.980;2023-12-14T00:35:08;13.68;;;7.57;;
60979;SDS011;46851;49.160;8.980;2023-12-14T00:37:38;13.38;;;6.85;;
60979;SDS011;46851;49.160;8.980;2023-12-14T00:40:04;13.45;;;7.68;;
60979;SDS011;46851;49.160;8.980;2023-12-14T00:42:32;11.45;;;7.05;;
60979;SDS011;46851;49.160;8.980;2023-12-14T00:44:58;16.52;;;7.32;;
60979;SDS011;46851;49.160;8.980;2023-12-14T00:47:27;12.88;;;7.55;;
60979;SDS011;46851;49.160;8.980;2023-12-14T00:55:38;13.98;;;7.20;;
60979;SDS011;46851;49.160;8.980;2023-12-14T00:58:09;11.93;;;6.68;;
60979;SDS011;46851;49.160;8.980;2023-12-14T01:00:46;12.93;;;7.10;;
60979;SDS011;46851;49.160;8.980;2023-12-14T01:03:20;14.02;;;6.90;;
60979;SDS011;46851;49.160;8.980;2023-12-14T01:05:46;15.90;;;7.72;;
60979;SDS011;46851;49.160;8.980;2023-12-14T01:08:12;18.20;;;8.45;;
60979;SDS011;46851;49.160;8.980;2023-12-14T01:10:39;15.88;;;8.35;;
60979;SDS011;46851;49.160;8.980;2023-12-14T01:13:06;15.02;;;8.95;;
60979;SDS011;46851;49.160;8.980;2023-12-14T01:15:32;17.73;;;8.32;;
60979;SDS011;46851;49.160;8.980;2023-12-14T01:17:59;16.35;;;8.45;;
60979;SDS011;46851;49.160;8.980;2023-12-14T01:20:25;16.38;;;8.88;;
60979;SDS011;46851;49.160;8.980;2023-12-14T01:22:51;17.73;;;8.90;;
60979;SDS011;46851;49.160;8.980;2023-12-14T01:25:17;17.02;;;9.73;;
60979;SDS011;46851;49.160;8.980;2023-12-14T01:27:43;17.13;;;9.50;;
60979;SDS011;46851;49.160;8.980;2023-12-14T01:30:09;19.48;;;9.45;;
60979;SDS011;46851;49.160;8.980;2023-12-14T01:32:35;16.90;;;9.50;;
60979;SDS011;46851;49.160;8.980;2023-12-14T01:35:01;16.88;;;8.93;;
60979;SDS011;46851;49.160;8.980;2023-12-14T01:37:27;17.90;;;9.50;;
60979;SDS011;46851;49.160;8.980;2023-12-14T01:39:53;16.80;;;9.13;;
60979;SDS011;46851;49.160;8.980;2023-12-14T01:42:19;20.45;;;10.30;;
60979;SDS011;46851;49.160;8.980;2023-12-14T01:44:45;15.95;;;9.13;;
60979;SDS011;46851;49.160;8.980;2023-12-14T01:47:11;18.80;;;9.63;;
60979;SDS011;46851;49.160;8.980;2023-12-14T01:49:37;20.75;;;9.73;;
60979;SDS011;46851;49.160;8.980;2023-12-14T01:52:04;22.73;;;10.48;;
60979;SDS011;46851;49.160;8.980;2023-12-14T01:54:30;19.73;;;9.65;;
60979;SDS011;46851;49.160;8.980;2023-12-14T01:56:56;21.33;;;10.63;;
60979;SDS011;46851;49.160;8.980;2023-12-14T01:59:22;21.98;;;10.50;;
60979;SDS011;46851;49.160;8.980;2023-12-14T02:01:54;18.10;;;9.90;;
60979;SDS011;46851;49.160;8.980;2023-12-14T02:04:22;19.90;;;10.43;;
60979;SDS011;46851;49.160;8.980;2023-12-14T02:06:49;19.77;;;9.75;;
60979;SDS011;46851;49.160;8.980;2023-12-14T02:12:02;20.10;;;10.43;;
60979;SDS011;46851;49.160;8.980;2023-12-14T02:14:29;25.02;;;10.70;;
60979;SDS011;46851;49.160;8.980;2023-12-14T02:16:55;20.35;;;10.38;;
60979;SDS011;46851;49.160;8.980;2023-12-14T02:19:32;18.15;;;10.05;;
60979;SDS011;46851;49.160;8.980;2023-12-14T02:22:19;20.25;;;10.93;;
60979;SDS011;46851;49.160;8.980;2023-12-14T02:24:45;23.27;;;11.80;;
60979;SDS011;46851;49.160;8.980;2023-12-14T02:27:11;22.02;;;10.95;;
60979;SDS011;46851;49.160;8.980;2023-12-14T02:29:39;19.35;;;10.95;;
60979;SDS011;46851;49.160;8.980;2023-12-14T02:32:05;23.50;;;12.25;;
60979;SDS011;46851;49.160;8.980;2023-12-14T02:34:31;19.15;;;11.25;;
60979;SDS011;46851;49.160;8.980;2023-12-14T02:36:57;23.38;;;11.80;;
60979;SDS011;46851;49.160;8.980;2023-12-14T02:39:23;22.02;;;12.52;;
60979;SDS011;46851;49.160;8.980;2023-12-14T02:41:49;20.83;;;11.13;;
60979;SDS011;46851;49.160;8.980;2023-12-14T02:44:18;21.65;;;11.13;;
60979;SDS011;46851;49.160;8.980;2023-12-14T02:46:44;26.15;;;12.80;;
60979;SDS011;46851;49.160;8.980;2023-12-14T02:49:10;22.65;;;12.23;;
60979;SDS011;46851;49.160;8.980;2023-12-14T02:51:36;22.15;;;12.50;;
60979;SDS011;46851;49.160;8.980;2023-12-14T02:54:02;23.30;;;12.65;;
60979;SDS011;46851;49.160;8.980;2023-12-14T02:56:28;24.92;;;13.50;;
60979;SDS011;46851;49.160;8.980;2023-12-14T02:58:54;25.40;;;12.80;;
60979;SDS011;46851;49.160;8.980;2023-12-14T03:01:20;22.23;;;12.27;;
60979;SDS011;46851;49.160;8.980;2023-12-14T03:03:49;22.98;;;13.23;;
60979;SDS011;46851;49.160;8.980;2023-12-14T03:06:18;23.87;;;12.97;;
60979;SDS011;46851;49.160;8.980;2023-12-14T03:08:44;23.92;;;13.18;;
60979;SDS011;46851;49.160;8.980;2023-12-14T03:11:10;27.98;;;13.70;;
60979;SDS011;46851;49.160;8.980;2023-12-14T03:13:36;29.52;;;15.75;;
60979;SDS011;46851;49.160;8.980;2023-12-14T03:16:03;27.17;;;13.50;;
60979;SDS011;46851;49.160;8.980;2023-12-14T03:18:29;30.08;;;14.48;;
60979;SDS011;46851;49.160;8.980;2023-12-14T03:20:55;25.42;;;14.25;;
60979;SDS011;46851;49.160;8.980;2023-12-14T03:23:21;31.50;;;16.10;;
60979;SDS011;46851;49.160;8.980;2023-12-14T03:25:47;25.98;;;14.90;;
60979;SDS011;46851;49.160;8.980;2023-12-14T03:28:13;29.65;;;14.82;;
60979;SDS011;46851;49.160;8.980;2023-12-14T03:30:39;28.50;;;14.98;;
60979;SDS011;46851;49.160;8.980;2023-12-14T03:33:07;31.55;;;16.27;;
60979;SDS011;46851;49.160;8.980;2023-12-14T03:35:33;27.85;;;15.60;;
60979;SDS011;46851;49.160;8.980;2023-12-14T03:38:01;28.05;;;15.15;;
60979;SDS011;46851;49.160;8.980;2023-12-14T03:40:27;27.90;;;15.38;;
60979;SDS011;46851;49.160;8.980;2023-12-14T03:42:53;31.25;;;15.50;;
60979;SDS011;46851;49.160;8.980;2023-12-14T03:45:19;31.95;;;15.48;;
60979;SDS011;46851;49.160;8.980;2023-12-14T03:47:45;29.13;;;15.57;;
60979;SDS011;46851;49.160;8.980;2023-12-14T03:50:11;32.72;;;15.60;;
60979;SDS011;46851;49.160;8.980;2023-12-14T03:52:37;29.15;;;14.85;;
60979;SDS011;46851;49.160;8.980;2023-12-14T03:55:03;34.22;;;17.23;;
60979;SDS011;46851;49.160;8.980;2023-12-14T03:57:29;32.65;;;16.08;;
60979;SDS011;46851;49.160;8.980;2023-12-14T03:59:57;30.63;;;16.10;;
60979;SDS011;46851;49.160;8.980;2023-12-14T04:02:23;33.92;;;17.10;;
60979;SDS011;46851;49.160;8.980;2023-12-14T04:04:49;34.25;;;15.85;;
60979;SDS011;46851;49.160;8.980;2023-12-14T04:07:15;34.30;;;16.52;;
60979;SDS011;46851;49.160;8.980;2023-12-14T04:09:41;28.13;;;15.13;;
60979;SDS011;46851;49.160;8.980;2023-12-14T04:12:07;35.47;;;15.60;;
60979;SDS011;46851;49.160;8.980;2023-12-14T04:14:33;30.27;;;15.48;;
60979;SDS011;46851;49.160;8.980;2023-12-14T04:16:59;33.50;;;16.30;;
60979;SDS011;46851;49.160;8.980;2023-12-14T04:19:25;30.85;;;15.82;;
60979;SDS011;46851;49.160;8.980;2023-12-14T04:21:51;29.02;;;15.68;;
60979;SDS011;46851;49.160;8.980;2023-12-14T04:24:17;30.20;;;15.85;;
60979;SDS011;46851;49.160;8.980;2023-12-14T04:26:43;32.30;;;16.60;;
60979;SDS011;46851;49.160;8.980;2023-12-14T04:29:09;30.77;;;15.43;;
60979;SDS011;46851;49.160;8.980;2023-12-14T04:31:35;34.80;;;16.30;;
60979;SDS011;46851;49.160;8.980;2023-12-14T04:34:01;32.13;;;16.30;;
60979;SDS011;46851;49.160;8.980;2023-12-14T04:36:27;37.33;;;16.50;;
60979;SDS011;46851;49.160;8.980;2023-12-14T04:38:54;34.08;;;16.83;;
60979;SDS011;46851;49.160;8.980;2023-12-14T04:41:20;34.03;;;16.17;;
60979;SDS011;46851;49.160;8.980;2023-12-14T04:43:46;31.45;;;15.93;;
60979;SDS011;46851;49.160;8.980;2023-12-14T04:46:12;34.17;;;16.55;;
60979;SDS011;46851;49.160;8.980;2023-12-14T04:52:06;32.95;;;16.20;;
60979;SDS011;46851;49.160;8.980;2023-12-14T05:01:09;33.95;;;15.40;;
60979;SDS011;46851;49.160;8.980;2023-12-14T05:03:37;38.17;;;16.95;;
60979;SDS011;46851;49.160;8.980;2023-12-14T05:06:13;29.52;;;15.80;;
60979;SDS011;46851;49.160;8.980;2023-12-14T05:08:39;30.40;;;15.20;;
60979;SDS011;46851;49.160;8.980;2023-12-14T05:11:07;34.78;;;16.42;;
60979;SDS011;46851;49.160;8.980;2023-12-14T05:13:33;33.38;;;17.40;;
60979;SDS011;46851;49.160;8.980;2023-12-14T05:16:00;36.08;;;17.38;;
60979;SDS011;46851;49.160;8.980;2023-12-14T05:18:26;38.72;;;17.05;;
60979;SDS011;46851;49.160;8.980;2023-12-14T05:20:55;33.20;;;16.23;;
60979;SDS011;46851;49.160;8.980;2023-12-14T05:23:22;34.95;;;16.85;;
60979;SDS011;46851;49.160;8.980;2023-12-14T05:25:50;41.55;;;18.33;;
60979;SDS011;46851;49.160;8.980;2023-12-14T05:28:16;40.20;;;17.35;;
60979;SDS011;46851;49.160;8.980;2023-12-14T05:30:42;34.78;;;17.42;;
60979;SDS011;46851;49.160;8.980;2023-12-14T05:33:08;36.67;;;18.05;;
60979;SDS011;46851;49.160;8.980;2023-12-14T05:35:34;40.95;;;17.80;;
60979;SDS011;46851;49.160;8.980;2023-12-14T05:38:00;36.70;;;18.35;;
60979;SDS011;46851;49.160;8.980;2023-12-14T05:40:26;39.65;;;18.65;;
60979;SDS011;46851;49.160;8.980;2023-12-14T05:42:52;37.25;;;18.52;;
60979;SDS011;46851;49.160;8.980;2023-12-14T05:45:18;38.13;;;18.30;;
60979;SDS011;46851;49.160;8.980;2023-12-14T05:47:44;40.10;;;18.48;;
60979;SDS011;46851;49.160;8.980;2023-12-14T05:50:10;46.60;;;20.45;;
60979;SDS011;46851;49.160;8.980;2023-12-14T05:52:37;39.42;;;17.63;;
60979;SDS011;46851;49.160;8.980;2023-12-14T05:55:06;49.58;;;20.33;;
60979;SDS011;46851;49.160;8.980;2023-12-14T05:57:33;56.20;;;21.95;;
60979;SDS011;46851;49.160;8.980;2023-12-14T05:59:59;55.03;;;21.75;;
60979;SDS011;46851;49.160;8.980;2023-12-14T06:02:25;45.47;;;19.27;;
60979;SDS011;46851;49.160;8.980;2023-12-14T06:04:51;50.47;;;21.17;;
60979;SDS011;46851;49.160;8.980;2023-12-14T06:07:17;49.50;;;20.60;;
60979;SDS011;46851;49.160;8.980;2023-12-14T06:09:43;44.80;;;19.52;;
60979;SDS011;46851;49.160;8.980;2023-12-14T06:12:09;42.35;;;19.38;;
60979;SDS011;46851;49.160;8.980;2023-12-14T06:14:35;42.42;;;18.63;;
60979;SDS011;46851;49.160;8.980;2023-12-14T06:17:03;46.10;;;19.55;;
60979;SDS011;46851;49.160;8.980;2023-12-14T06:19:29;45.88;;;18.77;;
60979;SDS011;46851;49.160;8.980;2023-12-14T06:21:55;46.80;;;18.98;;
60979;SDS011;46851;49.160;8.980;2023-12-14T06:24:27;41.42;;;17.33;;
60979;SDS011;46851;49.160;8.980;2023-12-14T06:26:54;59.95;;;22.25;;
60979;SDS011;46851;49.160;8.980;2023-12-14T06:29:22;61.85;;;20.85;;
60979;SDS011;46851;49.160;8.980;2023-12-14T06:31:51;46.83;;;18.88;;
60979;SDS011;46851;49.160;8.980;2023-12-14T06:34:17;47.75;;;18.63;;
60979;SDS011;46851;49.160;8.980;2023-12-14T06:36:44;50.72;;;19.25;;
60979;SDS011;46851;49.160;8.980;2023-12-14T06:39:10;46.13;;;19.27;;
60979;SDS011;46851;49.160;8.980;2023-12-14T06:41:36;48.80;;;17.08;;
60979;SDS011;46851;49.160;8.980;2023-12-14T06:44:04;53.13;;;19.77;;
60979;SDS011;46851;49.160;8.980;2023-12-14T06:46:30;50.28;;;19.05;;
60979;SDS011;46851;49.160;8.980;2023-12-14T06:48:56;53.22;;;20.20;;
60979;SDS011;46851;49.160;8.980;2023-12-14T06:51:22;57.47;;;19.48;;
60979;SDS011;46851;49.160;8.980;2023-12-14T06:53:48;52.47;;;19.92;;
60979;SDS011;46851;49.160;8.980;2023-12-14T06:56:14;49.30;;;18.27;;
60979;SDS011;46851;49.160;8.980;2023-12-14T06:58:41;56.88;;;20.92;;
60979;SDS011;46851;49.160;8.980;2023-12-14T07:01:07;50.45;;;19.20;;
60979;SDS011;46851;49.160;8.980;2023-12-14T07:03:34;50.55;;;18.85;;
60979;SDS011;46851;49.160;8.980;2023-12-14T07:06:00;62.10;;;21.40;;
60979;SDS011;46851;49.160;8.980;2023-12-14T07:08:26;65.82;;;22.25;;
60979;SDS011;46851;49.160;8.980;2023-12-14T07:10:52;67.03;;;19.92;;
60979;SDS011;46851;49.160;8.980;2023-12-14T07:13:18;66.32;;;21.05;;
60979;SDS011;46851;49.160;8.980;2023-12-14T07:15:44;61.80;;;20.60;;
60979;SDS011;46851;49.160;8.980;2023-12-14T07:18:10;61.22;;;20.75;;
60979;SDS011;46851;49.160;8.980;2023-12-14T07:20:36;64.03;;;20.27;;
60979;SDS011;46851;49.160;8.980;2023-12-14T07:23:02;55.95;;;19.65;;
60979;SDS011;46851;49.160;8.980;2023-12-14T07:25:28;58.15;;;20.52;;
60979;SDS011;46851;49.160;8.980;2023-12-14T07:27:54;63.15;;;20.05;;
60979;SDS011;46851;49.160;8.980;2023-12-14T07:30:20;94.30;;;28.40;;
60979;SDS011;46851;49.160;8.980;2023-12-14T07:32:46;82.72;;;24.90;;
60979;SDS011;46851;49.160;8.980;2023-12-14T07:35:12;69.65;;;23.55;;
60979;SDS011;46851;49.160;8.980;2023-12-14T07:37:38;64.45;;;20.02;;
60979;SDS011;46851;49.160;8.980;2023-12-14T07:40:04;62.78;;;19.58;;
60979;SDS011;46851;49.160;8.980;2023-12-14T07:42:30;55.65;;;20.40;;
60979;SDS011;46851;49.160;8.980;2023-12-14T07:44:56;52.53;;;18.65;;
60979;SDS011;46851;49.160;8.980;2023-12-14T07:47:22;63.88;;;18.55;;
60979;SDS011;46851;49.160;8.980;2023-12-14T07:50:04;62.38;;;19.80;;
60979;SDS011;46851;49.160;8.980;2023-12-14T07:52:30;54.75;;;18.35;;
60979;SDS011;46851;49.160;8.980;2023-12-14T07:54:56;57.55;;;19.52;;
60979;SDS011;46851;49.160;8.980;2023-12-14T07:57:25;57.47;;;19.00;;
60979;SDS011;46851;49.160;8.980;2023-12-14T07:59:54;40.53;;;17.17;;
60979;SDS011;46851;49.160;8.980;2023-12-14T08:02:20;44.03;;;18.97;;
60979;SDS011;46851;49.160;8.980;2023-12-14T08:04:46;43.83;;;17.48;;
60979;SDS011;46851;49.160;8.980;2023-12-14T08:07:15;41.38;;;18.35;;
60979;SDS011;46851;49.160;8.980;2023-12-14T08:09:49;36.92;;;16.42;;
60979;SDS011;46851;49.160;8.980;2023-12-14T08:12:15;44.72;;;24.83;;
60979;SDS011;46851;49.160;8.980;2023-12-14T08:14:41;45.38;;;18.02;;
60979;SDS011;46851;49.160;8.980;2023-12-14T08:17:08;47.45;;;17.83;;
60979;SDS011;46851;49.160;8.980;2023-12-14T08:19:35;40.90;;;16.48;;
60979;SDS011;46851;49.160;8.980;2023-12-14T08:22:01;44.63;;;17.83;;
60979;SDS011;46851;49.160;8.980;2023-12-14T08:24:27;37.00;;;16.08;;
60979;SDS011;46851;49.160;8.980;2023-12-14T08:26:53;43.60;;;17.83;;
60979;SDS011;46851;49.160;8.980;2023-12-14T08:29:20;43.63;;;17.38;;
60979;SDS011;46851;49.160;8.980;2023-12-14T08:31:47;48.95;;;17.52;;
60979;SDS011;46851;49.160;8.980;2023-12-14T08:34:13;44.35;;;18.38;;
60979;SDS011;46851;49.160;8.980;2023-12-14T08:36:39;43.35;;;18.23;;
60979;SDS011;46851;49.160;8.980;2023-12-14T08:39:05;51.20;;;20.52;;
60979;SDS011;46851;49.160;8.980;2023-12-14T08:41:31;41.30;;;18.63;;
60979;SDS011;46851;49.160;8.980;2023-12-14T08:43:57;41.25;;;17.67;;
60979;SDS011;46851;49.160;8.980;2023-12-14T08:46:23;44.38;;;17.60;;
60979;SDS011;46851;49.160;8.980;2023-12-14T08:48:49;44.22;;;18.33;;
60979;SDS011;46851;49.160;8.980;2023-12-14T08:51:16;44.05;;;18.13;;
60979;SDS011;46851;49.160;8.980;2023-12-14T08:53:44;45.10;;;18.13;;
60979;SDS011;46851;49.160;8.980;2023-12-14T08:56:10;40.53;;;18.10;;
60979;SDS011;46851;49.160;8.980;2023-12-14T08:58:36;44.03;;;19.55;;
60979;SDS011;46851;49.160;8.980;2023-12-14T09:01:04;43.42;;;19.77;;
60979;SDS011;46851;49.160;8.980;2023-12-14T09:03:31;42.05;;;19.27;;
60979;SDS011;46851;49.160;8.980;2023-12-14T09:06:00;50.80;;;20.92;;
60979;SDS011;46851;49.160;8.980;2023-12-14T09:10:56;39.28;;;17.67;;
60979;SDS011;46851;49.160;8.980;2023-12-14T09:13:22;46.83;;;19.40;;
60979;SDS011;46851;49.160;8.980;2023-12-14T09:15:48;43.28;;;17.85;;
60979;SDS011;46851;49.160;8.980;2023-12-14T09:18:17;61.65;;;23.27;;
60979;SDS011;46851;49.160;8.980;2023-12-14T09:20:43;59.85;;;20.23;;
60979;SDS011;46851;49.160;8.980;2023-12-14T09:23:09;44.35;;;19.10;;
60979;SDS011;46851;49.160;8.980;2023-12-14T09:25:38;54.30;;;20.48;;
60979;SDS011;46851;49.160;8.980;2023-12-14T09:28:04;54.57;;;19.87;;
60979;SDS011;46851;49.160;8.980;2023-12-14T09:30:33;55.80;;;20.48;;
60979;SDS011;46851;49.160;8.980;2023-12-14T09:33:02;46.67;;;19.30;;
60979;SDS011;46851;49.160;8.980;2023-12-14T09:35:31;52.03;;;20.30;;
60979;SDS011;46851;49.160;8.980;2023-12-14T09:37:59;44.35;;;19.85;;
60979;SDS011;46851;49.160;8.980;2023-12-14T09:40:26;46.03;;;20.05;;
60979;SDS011;46851;49.160;8.980;2023-12-14T09:43:02;51.45;;;20.45;;
60979;SDS011;46851;49.160;8.980;2023-12-14T09:45:46;47.80;;;19.27;;
60979;SDS011;46851;49.160;8.980;2023-12-14T09:48:16;54.95;;;21.17;;
60979;SDS011;46851;49.160;8.980;2023-12-14T09:50:44;39.35;;;16.85;;
60979;SDS011;46851;49.160;8.980;2023-12-14T09:53:18;38.63;;;17.05;;
60979;SDS011;46851;49.160;8.980;2023-12-14T09:55:46;45.63;;;19.88;;
60979;SDS011;46851;49.160;8.980;2023-12-14T09:58:13;59.47;;;22.23;;
60979;SDS011;46851;49.160;8.980;2023-12-14T10:00:46;43.10;;;18.02;;
60979;SDS011;46851;49.160;8.980;2023-12-14T10:05:45;33.28;;;14.98;;
60979;SDS011;46851;49.160;8.980;2023-12-14T10:08:12;30.35;;;15.23;;
60979;SDS011;46851;49.160;8.980;2023-12-14T10:13:41;28.92;;;14.10;;
60979;SDS011;46851;49.160;8.980;2023-12-14T10:16:21;29.20;;;14.07;;
60979;SDS011;46851;49.160;8.980;2023-12-14T10:18:52;31.67;;;15.20;;
60979;SDS011;46851;49.160;8.980;2023-12-14T10:21:20;36.17;;;15.20;;
60979;SDS011;46851;49.160;8.980;2023-12-14T10:23:49;32.75;;;15.65;;
60979;SDS011;46851;49.160;8.980;2023-12-14T10:26:36;38.40;;;16.48;;
60979;SDS011;46851;49.160;8.980;2023-12-14T10:29:02;46.78;;;18.92;;
60979;SDS011;46851;49.160;8.980;2023-12-14T10:31:55;36.38;;;16.58;;
60979;SDS011;46851;49.160;8.980;2023-12-14T10:34:23;43.60;;;17.13;;
60979;SDS011;46851;49.160;8.980;2023-12-14T10:42:30;30.67;;;13.93;;
60979;SDS011;46851;49.160;8.980;2023-12-14T10:48:15;28.85;;;13.27;;
60979;SDS011;46851;49.160;8.980;2023-12-14T10:50:48;27.50;;;13.10;;
60979;SDS011;46851;49.160;8.980;2023-12-14T10:53:38;24.50;;;13.18;;
60979;SDS011;46851;49.160;8.980;2023-12-14T10:59:41;29.10;;;12.38;;
60979;SDS011;46851;49.160;8.980;2023-12-14T11:05:26;24.30;;;13.45;;
60979;SDS011;46851;49.160;8.980;2023-12-14T11:14:19;22.23;;;12.05;;
60979;SDS011;46851;49.160;8.980;2023-12-14T11:16:47;24.75;;;12.13;;
60979;SDS011;46851;49.160;8.980;2023-12-14T11:24:36;22.20;;;11.13;;
60979;SDS011;46851;49.160;8.980;2023-12-14T11:27:06;18.55;;;9.57;;
60979;SDS011;46851;49.160;8.980;2023-12-14T11:29:32;21.75;;;11.13;;
60979;SDS011;46851;49.160;8.980;2023-12-14T11:31:58;17.75;;;9.38;;
60979;SDS011;46851;49.160;8.980;2023-12-14T11:34:24;21.00;;;10.35;;
60979;SDS011;46851;49.160;8.980;2023-12-14T11:36:51;19.17;;;9.85;;
60979;SDS011;46851;49.160;8.980;2023-12-14T11:39:16;15.40;;;9.25;;
60979;SDS011;46851;49.160;8.980;2023-12-14T11:41:57;22.33;;;9.25;;
60979;SDS011;46851;49.160;8.980;2023-12-14T11:44:25;17.60;;;9.38;;
60979;SDS011;46851;49.160;8.980;2023-12-14T11:46:51;19.40;;;9.88;;
60979;SDS011;46851;49.160;8.980;2023-12-14T11:49:17;16.15;;;9.27;;
60979;SDS011;46851;49.160;8.980;2023-12-14T11:51:45;17.02;;;9.60;;
60979;SDS011;46851;49.160;8.980;2023-12-14T11:54:11;19.63;;;9.88;;
60979;SDS011;46851;49.160;8.980;2023-12-14T11:56:37;19.23;;;10.27;;
60979;SDS011;46851;49.160;8.980;2023-12-14T11:59:03;21.05;;;9.93;;
60979;SDS011;46851;49.160;8.980;2023-12-14T12:01:29;18.13;;;9.90;;
60979;SDS011;46851;49.160;8.980;2023-12-14T12:03:56;21.38;;;10.73;;
60979;SDS011;46851;49.160;8.980;2023-12-14T12:06:23;22.02;;;11.25;;
60979;SDS011;46851;49.160;8.980;2023-12-14T12:08:49;18.02;;;10.40;;
60979;SDS011;46851;49.160;8.980;2023-12-14T12:11:17;18.55;;;11.52;;
60979;SDS011;46851;49.160;8.980;2023-12-14T12:13:43;21.80;;;11.23;;
60979;SDS011;46851;49.160;8.980;2023-12-14T12:16:09;20.80;;;10.88;;
60979;SDS011;46851;49.160;8.980;2023-12-14T12:18:35;23.42;;;11.35;;
60979;SDS011;46851;49.160;8.980;2023-12-14T12:21:01;25.25;;;11.80;;
60979;SDS011;46851;49.160;8.980;2023-12-14T12:23:31;19.17;;;11.02;;
60979;SDS011;46851;49.160;8.980;2023-12-14T12:25:57;21.65;;;10.93;;
60979;SDS011;46851;49.160;8.980;2023-12-14T12:28:23;22.85;;;11.65;;
60979;SDS011;46851;49.160;8.980;2023-12-14T12:30:49;21.35;;;11.35;;
60979;SDS011;46851;49.160;8.980;2023-12-14T12:33:15;18.00;;;10.88;;
60979;SDS011;46851;49.160;8.980;2023-12-14T12:35:41;16.40;;;8.82;;
60979;SDS011;46851;49.160;8.980;2023-12-14T12:38:07;18.48;;;6.50;;
60979;SDS011;46851;49.160;8.980;2023-12-14T12:40:33;14.13;;;6.40;;
60979;SDS011;46851;49.160;8.980;2023-12-14T12:42:59;16.35;;;5.97;;
60979;SDS011;46851;49.160;8.980;2023-12-14T12:45:25;9.20;;;5.03;;
60979;SDS011;46851;49.160;8.980;2023-12-14T12:47:52;10.52;;;5.63;;
60979;SDS011;46851;49.160;8.980;2023-12-14T12:50:19;31.98;;;9.77;;
60979;SDS011;46851;49.160;8.980;2023-12-14T12:52:45;14.27;;;6.63;;
60979;SDS011;46851;49.160;8.980;2023-12-14T12:55:14;24.30;;;5.60;;
60979;SDS011;46851;49.160;8.980;2023-12-14T12:57:40;14.10;;;5.80;;
60979;SDS011;46851;49.160;8.980;2023-12-14T13:00:07;15.93;;;5.63;;
60979;SDS011;46851;49.160;8.980;2023-12-14T13:02:37;23.52;;;7.38;;
60979;SDS011;46851;49.160;8.980;2023-12-14T13:05:04;28.10;;;7.80;;
60979;SDS011;46851;49.160;8.980;2023-12-14T13:07:30;29.95;;;8.50;;
60979;SDS011;46851;49.160;8.980;2023-12-14T13:09:57;21.85;;;7.28;;
60979;SDS011;46851;49.160;8.980;2023-12-14T13:12:23;24.08;;;7.55;;
60979;SDS011;46851;49.160;8.980;2023-12-14T13:14:49;21.80;;;8.45;;
60979;SDS011;46851;49.160;8.980;2023-12-14T13:17:15;19.48;;;9.70;;
60979;SDS011;46851;49.160;8.980;2023-12-14T13:19:43;22.42;;;9.80;;
60979;SDS011;46851;49.160;8.980;2023-12-14T13:22:09;21.42;;;10.18;;
60979;SDS011;46851;49.160;8.980;2023-12-14T13:24:36;17.65;;;10.10;;
60979;SDS011;46851;49.160;8.980;2023-12-14T13:27:02;16.90;;;10.30;;
60979;SDS011;46851;49.160;8.980;2023-12-14T13:29:29;18.10;;;10.15;;
60979;SDS011;46851;49.160;8.980;2023-12-14T13:31:57;20.67;;;10.48;;
60979;SDS011;46851;49.160;8.980;2023-12-14T13:34:24;21.13;;;11.43;;
60979;SDS011;46851;49.160;8.980;2023-12-14T13:36:50;20.15;;;11.30;;
60979;SDS011;46851;49.160;8.980;2023-12-14T13:39:16;25.38;;;11.45;;
60979;SDS011;46851;49.160;8.980;2023-12-14T13:41:42;18.92;;;10.40;;
60979;SDS011;46851;49.160;8.980;2023-12-14T13:44:08;19.48;;;10.20;;
60979;SDS011;46851;49.160;8.980;2023-12-14T13:46:34;23.95;;;10.75;;
60979;SDS011;46851;49.160;8.980;2023-12-14T13:49:00;32.70;;;11.68;;
60979;SDS011;46851;49.160;8.980;2023-12-14T13:51:27;25.60;;;11.93;;
60979;SDS011;46851;49.160;8.980;2023-12-14T13:53:53;25.05;;;12.60;;
60979;SDS011;46851;49.160;8.980;2023-12-14T13:56:19;22.98;;;11.05;;
60979;SDS011;46851;49.160;8.980;2023-12-14T13:58:45;23.27;;;10.00;;
60979;SDS011;46851;49.160;8.980;2023-12-14T14:01:11;27.48;;;10.65;;
60979;SDS011;46851;49.160;8.980;2023-12-14T14:03:37;27.60;;;11.30;;
60979;SDS011;46851;49.160;8.980;2023-12-14T14:06:03;23.92;;;11.05;;
60979;SDS011;46851;49.160;8.980;2023-12-14T14:08:30;26.42;;;10.25;;
60979;SDS011;46851;49.160;8.980;2023-12-14T14:10:59;20.88;;;10.05;;
60979;SDS011;46851;49.160;8.980;2023-12-14T14:13:25;21.17;;;10.40;;
60979;SDS011;46851;49.160;8.980;2023-12-14T14:15:51;25.65;;;10.45;;
60979;SDS011;46851;49.160;8.980;2023-12-14T14:18:17;30.10;;;10.50;;
60979;SDS011;46851;49.160;8.980;2023-12-14T14:20:43;28.48;;;11.15;;
60979;SDS011;46851;49.160;8.980;2023-12-14T14:23:10;29.80;;;11.40;;
60979;SDS011;46851;49.160;8.980;2023-12-14T14:25:36;26.15;;;10.60;;
60979;SDS011;46851;49.160;8.980;2023-12-14T14:28:02;26.70;;;10.68;;
60979;SDS011;46851;49.160;8.980;2023-12-14T14:30:28;27.88;;;12.52;;
60979;SDS011;46851;49.160;8.980;2023-12-14T14:32:54;33.53;;;13.30;;
60979;SDS011;46851;49.160;8.980;2023-12-14T14:35:21;29.40;;;12.50;;
60979;SDS011;46851;49.160;8.980;2023-12-14T14:37:48;59.05;;;22.95;;
60979;SDS011;46851;49.160;8.980;2023-12-14T14:40:15;49.03;;;17.70;;
60979;SDS011;46851;49.160;8.980;2023-12-14T14:42:41;53.33;;;18.50;;
60979;SDS011;46851;49.160;8.980;2023-12-14T14:45:08;35.88;;;15.68;;
60979;SDS011;46851;49.160;8.980;2023-12-14T14:47:34;27.05;;;12.23;;
60979;SDS011;46851;49.160;8.980;2023-12-14T14:50:01;27.92;;;11.15;;
60979;SDS011;46851;49.160;8.980;2023-12-14T14:52:31;29.33;;;10.73;;
60979;SDS011;46851;49.160;8.980;2023-12-14T14:54:57;27.70;;;12.20;;
60979;SDS011;46851;49.160;8.980;2023-12-14T14:57:23;34.92;;;11.75;;
60979;SDS011;46851;49.160;8.980;2023-12-14T14:59:50;46.97;;;19.65;;
60979;SDS011;46851;49.160;8.980;2023-12-14T15:02:16;47.33;;;19.25;;
60979;SDS011;46851;49.160;8.980;2023-12-14T15:04:42;42.67;;;19.20;;
60979;SDS011;46851;49.160;8.980;2023-12-14T15:07:08;29.13;;;14.82;;
60979;SDS011;46851;49.160;8.980;2023-12-14T15:09:34;34.03;;;13.93;;
60979;SDS011;46851;49.160;8.980;2023-12-14T15:12:00;32.00;;;14.45;;
60979;SDS011;46851;49.160;8.980;2023-12-14T15:14:26;23.52;;;12.95;;
60979;SDS011;46851;49.160;8.980;2023-12-14T15:16:53;29.90;;;12.95;;